Time;durP1;ratioP1;P1;durP2;ratioP2;P2;SDS_P1;SDS_P2;PMS_P1;PMS_P2;Temp;Humidity;BMP_temperature;BMP_pressure;BME280_temperature;BME280_humidity;BME280_pressure;Samples;Min_cycle;Max_cycle;Signal;HPM_P1;HPM_P2
2023/01/26 00:00:58;;;;;;;10.80;10.20;;;;;;;-0.20;94.10;93186.22;5009075;28;20243;-76
2023/01/26 00:03:25;;;;;;;11.27;10.37;;;;;;;-0.27;94.54;93182.88;5009419;28;20222;-75
2023/01/26 00:05:50;;;;;;;12.10;11.40;;;;;;;-0.22;93.91;93183.84;5010286;28;20319;-73
2023/01/26 00:08:16;;;;;;;12.17;11.13;;;;;;;-0.48;93.90;93150.53;5009643;28;20195;-78
2023/01/26 00:10:49;;;;;;;12.07;11.27;;;;;;;-0.26;94.43;93182.69;5010490;28;20295;-77
2023/01/26 00:13:15;;;;;;;10.80;10.07;;;;;;;-0.14;93.63;93183.63;5010655;28;20199;-77
2023/01/26 00:15:41;;;;;;;11.83;10.77;;;;;;;-0.26;93.82;93184.44;5010152;28;20223;-77
2023/01/26 00:18:08;;;;;;;11.50;10.63;;;;;;;-0.54;93.79;93150.53;5010770;28;20205;-77
2023/01/26 00:20:33;;;;;;;13.43;12.43;;;;;;;-0.46;94.82;93176.78;5009902;28;20226;-77
2023/01/26 00:22:59;;;;;;;12.67;11.67;;;;;;;-0.36;95.44;93186.63;5009830;28;20231;-77
2023/01/26 00:25:24;;;;;;;12.00;11.23;;;;;;;-0.43;95.49;93173.03;5010161;28;20215;-77
2023/01/26 00:27:49;;;;;;;12.17;11.23;;;;;;;-0.35;94.77;93154.88;5009863;28;20219;-77
2023/01/26 00:30:15;;;;;;;13.03;12.07;;;;;;;-0.62;94.37;93118.22;5009390;28;20230;-77
2023/01/26 00:32:40;;;;;;;12.23;11.43;;;;;;;-0.24;95.36;93167.09;5010029;28;20219;-77
2023/01/26 00:35:06;;;;;;;12.80;11.90;;;;;;;-0.22;93.88;93154.84;5007648;28;20227;-77
2023/01/26 00:37:32;;;;;;;10.60;10.00;;;;;;;-0.20;93.71;93160.56;5009571;28;20200;-77
2023/01/26 00:39:57;;;;;;;12.70;11.77;;;;;;;-0.29;93.31;93164.31;5009048;28;20219;-77
2023/01/26 00:42:23;;;;;;;12.30;11.40;;;;;;;-0.40;93.19;93152.91;5009710;28;20186;-77
2023/01/26 00:44:49;;;;;;;11.87;11.17;;;;;;;-0.34;93.73;93156.44;5008599;28;21084;-77
2023/01/26 00:47:16;;;;;;;12.80;11.67;;;;;;;-0.50;94.04;93147.38;5008043;28;20180;-77
2023/01/26 00:49:42;;;;;;;11.80;11.03;;;;;;;-0.63;95.18;93151.72;5009738;28;20305;-76
2023/01/26 00:52:07;;;;;;;12.77;11.80;;;;;;;-0.56;95.25;93132.78;5007557;28;20223;-77
2023/01/26 00:54:33;;;;;;;11.53;10.57;;;;;;;-0.50;94.17;93149.19;5009720;28;20371;-78
2023/01/26 00:56:58;;;;;;;11.67;10.73;;;;;;;-0.53;94.61;93137.53;5009933;28;20190;-77
2023/01/26 00:59:24;;;;;;;11.90;11.00;;;;;;;-0.55;94.66;93141.28;5007505;28;20268;-77
2023/01/26 01:01:50;;;;;;;12.80;11.63;;;;;;;-0.52;94.56;93138.31;5009572;28;20183;-77
2023/01/26 01:04:15;;;;;;;13.47;12.50;;;;;;;-0.59;94.60;93142.69;5007544;28;20219;-77
2023/01/26 01:06:41;;;;;;;13.37;12.33;;;;;;;-0.54;94.92;93135.16;5009989;28;20183;-78
2023/01/26 01:09:07;;;;;;;13.67;12.47;;;;;;;-0.57;94.83;93131.22;5008054;28;20188;-77
2023/01/26 01:11:32;;;;;;;11.73;11.03;;;;;;;-0.76;95.02;93096.13;5009769;28;20242;-77
2023/01/26 01:13:58;;;;;;;12.90;11.67;;;;;;;-0.46;94.27;93147.78;5009350;28;20191;-77
2023/01/26 01:16:23;;;;;;;11.90;11.17;;;;;;;-0.52;94.56;93131.44;5008936;28;20198;-77
2023/01/26 01:18:53;;;;;;;11.97;11.23;;;;;;;-0.50;94.21;93126.09;5009055;28;20195;-77
2023/01/26 01:21:19;;;;;;;11.77;11.03;;;;;;;-0.56;94.64;93135.34;5007782;28;20259;-77
2023/01/26 01:23:45;;;;;;;12.20;11.47;;;;;;;-0.79;93.88;93106.00;5009663;28;20219;-77
2023/01/26 01:26:11;;;;;;;12.23;11.40;;;;;;;-0.74;93.59;93093.38;5007824;28;21079;-77
2023/01/26 01:28:36;;;;;;;12.33;11.53;;;;;;;-0.65;93.59;93103.22;5009189;28;20195;-77
2023/01/26 01:31:06;;;;;;;11.77;10.77;;;;;;;-0.54;93.89;93124.91;5008922;28;20223;-77
2023/01/26 01:33:32;;;;;;;13.10;12.13;;;;;;;-0.77;93.89;93104.03;5009246;28;20195;-77
2023/01/26 01:35:59;;;;;;;12.10;11.27;;;;;;;-0.57;93.52;93125.28;5008385;28;20237;-77
2023/01/26 01:38:26;;;;;;;11.37;10.57;;;;;;;-0.59;93.79;93122.16;5009142;28;20192;-77
2023/01/26 01:40:52;;;;;;;12.73;11.93;;;;;;;-0.68;93.59;93110.53;5007352;28;20231;-77
2023/01/26 01:43:18;;;;;;;12.67;11.83;;;;;;;-0.86;93.84;93069.34;5034772;28;20218;-77
2023/01/26 01:45:45;;;;;;;13.00;12.07;;;;;;;-0.71;93.30;93121.97;5008929;28;20321;-77
2023/01/26 01:48:52;;;;;;;11.23;10.43;;;;;;;-0.71;94.29;93108.34;5009379;28;20187;-77
2023/01/26 01:51:27;;;;;;;11.70;10.90;;;;;;;-0.64;93.68;93114.28;5010966;28;20237;-77
2023/01/26 01:53:56;;;;;;;12.30;11.37;;;;;;;-0.67;93.70;93117.25;5007623;28;20192;-77
2023/01/26 01:56:27;;;;;;;12.60;11.80;;;;;;;-0.82;93.15;93085.88;5007502;28;20180;-77
2023/01/26 01:58:56;;;;;;;12.93;12.00;;;;;;;-0.61;93.41;93119.00;5007924;28;20203;-77
2023/01/26 02:01:21;;;;;;;13.13;11.97;;;;;;;-0.64;93.38;93096.34;5013229;28;20184;-77
2023/01/26 02:03:50;;;;;;;12.10;11.40;;;;;;;-0.85;92.88;93042.72;5012542;28;20286;-77
2023/01/26 02:06:34;;;;;;;13.30;12.40;;;;;;;-0.69;92.64;93102.06;5011191;28;20207;-77
2023/01/26 02:09:00;;;;;;;12.80;12.00;;;;;;;-0.71;93.34;93098.09;5009779;28;20283;-77
2023/01/26 02:11:44;;;;;;;11.77;11.07;;;;;;;-0.78;93.04;93094.78;5011796;28;20188;-77
2023/01/26 02:14:13;;;;;;;11.70;11.00;;;;;;;-1.12;94.48;93028.38;5011442;28;20255;-77
2023/01/26 02:16:39;;;;;;;13.10;12.20;;;;;;;-0.77;94.12;93093.78;5012311;28;20206;-77
2023/01/26 02:19:24;;;;;;;11.80;10.87;;;;;;;-0.78;94.30;93077.59;5011899;28;20254;-77
2023/01/26 02:21:53;;;;;;;12.00;11.30;;;;;;;-0.82;94.11;93070.50;5012692;28;20207;-77
2023/01/26 02:24:24;;;;;;;14.33;12.47;;;;;;;-0.64;93.41;93065.56;5011240;28;20350;-77
2023/01/26 02:26:49;;;;;;;12.23;11.40;;;;;;;-0.60;93.52;93066.75;5009262;28;20187;-75
2023/01/26 02:29:15;;;;;;;12.60;11.73;;;;;;;-0.67;93.22;93058.28;5012386;28;20227;-76
2023/01/26 02:31:41;;;;;;;12.30;11.33;;;;;;;-0.66;93.54;93059.84;5011666;28;20196;-77
2023/01/26 02:34:06;;;;;;;11.83;11.07;;;;;;;-0.64;94.13;93057.88;5011731;28;20199;-78
2023/01/26 02:36:33;;;;;;;13.17;12.07;;;;;;;-0.68;94.20;93059.25;5012069;28;20172;-77
2023/01/26 02:39:10;;;;;;;12.40;11.57;;;;;;;-0.66;93.72;93054.72;5011494;28;20199;-77
2023/01/26 02:44:21;;;;;;;13.10;12.20;;;;;;;-0.77;93.51;93039.94;5011228;28;20278;-77
2023/01/26 02:46:46;;;;;;;11.20;10.47;;;;;;;-0.76;93.91;93029.50;5012136;28;20217;-77
2023/01/26 02:51:56;;;;;;;12.30;11.47;;;;;;;-0.75;93.51;93032.84;5011839;28;20230;-77
2023/01/26 02:57:05;;;;;;;13.30;12.23;;;;;;;-0.76;93.96;93016.69;5011366;28;20242;-76
2023/01/26 02:59:30;;;;;;;13.57;12.17;;;;;;;-0.73;93.66;93013.72;5011166;28;20259;-77
2023/01/26 03:01:57;;;;;;;12.10;11.10;;;;;;;-0.74;93.49;93021.59;5010907;28;20211;-77
2023/01/26 03:04:22;;;;;;;12.73;12.03;;;;;;;-0.66;93.43;93021.41;5011032;28;20243;-77
2023/01/26 03:06:48;;;;;;;11.40;10.50;;;;;;;-0.84;93.50;93016.91;5011762;28;20191;-77
2023/01/26 03:09:13;;;;;;;12.40;11.70;;;;;;;-0.77;94.16;93012.56;5010319;28;20230;-77
2023/01/26 03:11:41;;;;;;;12.27;11.37;;;;;;;-0.62;92.58;93018.22;5010508;28;20198;-77
2023/01/26 03:14:11;;;;;;;13.33;12.53;;;;;;;-0.87;93.27;92989.09;5010301;28;20199;-77
2023/01/26 03:16:37;;;;;;;12.63;11.93;;;;;;;-0.71;93.28;93016.88;5011760;28;20242;-76
2023/01/26 03:29:43;;;;;;;11.67;10.67;;;;;;;-0.89;93.78;92983.41;5010816;28;20780;-77
2023/01/26 03:32:09;;;;;;;11.87;11.07;;;;;;;-0.95;93.98;92968.81;5011118;28;20183;-77
2023/01/26 03:34:35;;;;;;;11.60;10.90;;;;;;;-0.81;92.92;92985.75;5011151;28;20290;-77
2023/01/26 03:37:00;;;;;;;11.27;10.47;;;;;;;-1.02;93.46;92962.94;5011440;28;20239;-78
2023/01/26 03:56:23;;;;;;;12.37;11.60;;;;;;;-0.74;93.79;92972.91;5009258;28;20274;-72
2023/01/26 03:58:54;;;;;;;11.73;11.07;;;;;;;-0.87;92.94;92949.91;5009384;28;20215;-73
2023/01/26 04:01:31;;;;;;;12.60;11.80;;;;;;;-0.79;93.18;92965.84;5009366;28;20306;-72
2023/01/26 04:09:31;;;;;;;13.23;12.13;;;;;;;-0.77;92.83;92963.88;5010182;28;20223;-73
2023/01/26 04:11:57;;;;;;;12.37;11.57;;;;;;;-0.97;93.25;92946.97;5009693;28;20199;-72
2023/01/26 04:22:44;;;;;;;10.57;9.80;;;;;;;-0.98;93.78;92930.03;5008641;28;20263;-72
2023/01/26 04:25:15;;;;;;;9.70;9.10;;;;;;;-1.04;93.46;92907.78;5009960;28;20243;-72
2023/01/26 04:27:40;;;;;;;12.23;11.47;;;;;;;-0.92;93.17;92926.66;5008989;28;20202;-73
2023/01/26 04:30:09;;;;;;;11.30;10.50;;;;;;;-1.10;93.16;92904.22;5006598;28;20235;-72
2023/01/26 04:32:35;;;;;;;11.57;10.73;;;;;;;-1.04;93.04;92913.66;5009413;28;20222;-72
2023/01/26 04:35:01;;;;;;;11.50;10.70;;;;;;;-0.98;93.90;92930.03;5009663;28;20239;-72
2023/01/26 04:37:26;;;;;;;10.77;9.97;;;;;;;-0.89;93.55;92931.38;5008832;28;20184;-73
2023/01/26 04:39:52;;;;;;;11.87;10.90;;;;;;;-1.02;93.66;92909.13;5009872;28;20231;-72
2023/01/26 04:42:17;;;;;;;11.13;10.53;;;;;;;-0.80;93.03;92919.91;5010284;28;20187;-72
2023/01/26 04:44:43;;;;;;;10.47;9.90;;;;;;;-0.98;92.37;92907.72;5008505;28;20223;-72
2023/01/26 04:47:08;;;;;;;10.80;10.10;;;;;;;-1.10;92.12;92900.88;5009634;28;20219;-72
2023/01/26 04:49:33;;;;;;;11.83;11.03;;;;;;;-0.97;91.59;92919.56;5009682;28;20556;-72
2023/01/26 04:51:59;;;;;;;11.10;10.33;;;;;;;-1.03;91.99;92919.59;5009193;28;20285;-71
2023/01/26 04:54:24;;;;;;;11.00;10.37;;;;;;;-1.03;91.90;92889.66;5008498;28;20246;-72
2023/01/26 04:56:50;;;;;;;11.40;10.80;;;;;;;-0.92;91.42;92912.06;5008078;28;20183;-72
2023/01/26 04:59:16;;;;;;;11.67;10.77;;;;;;;-0.74;91.20;92931.91;5008677;28;20254;-74
2023/01/26 05:01:42;;;;;;;11.67;11.00;;;;;;;-0.80;90.70;92927.59;5011003;28;20187;-75
2023/01/26 05:04:09;;;;;;;11.57;10.80;;;;;;;-0.84;91.27;92929.00;5008891;28;20242;-75
2023/01/26 05:06:34;;;;;;;10.47;9.87;;;;;;;-0.72;90.17;92938.44;5009279;28;20236;-75
2023/01/26 05:08:59;;;;;;;12.33;11.67;;;;;;;-0.85;90.48;92937.66;5008495;28;20203;-75
2023/01/26 05:11:25;;;;;;;12.20;11.50;;;;;;;-1.08;90.05;92898.91;5009261;28;20191;-76
2023/01/26 05:13:50;;;;;;;10.67;10.03;;;;;;;-0.84;90.87;92934.91;5008941;28;20191;-75
2023/01/26 05:16:16;;;;;;;11.10;10.60;;;;;;;-0.79;90.79;92929.16;5009576;28;20207;-75
2023/01/26 05:18:42;;;;;;;11.43;10.63;;;;;;;-0.72;90.07;92925.59;5009117;28;20187;-75
2023/01/26 05:21:09;;;;;;;10.97;10.30;;;;;;;-0.96;90.05;92907.53;5007171;28;20223;-75
2023/01/26 05:23:35;;;;;;;12.63;11.80;;;;;;;-0.88;90.35;92918.38;5008771;28;20207;-75
2023/01/26 05:26:00;;;;;;;11.70;11.00;;;;;;;-0.86;90.51;92915.59;5008736;28;20328;-76
2023/01/26 05:28:26;;;;;;;12.30;11.47;;;;;;;-0.65;90.09;92923.00;5007869;28;20183;-75
2023/01/26 05:30:52;;;;;;;11.10;10.40;;;;;;;-0.75;89.79;92900.38;5008951;28;20270;-75
2023/01/26 05:33:20;;;;;;;11.97;11.17;;;;;;;-0.49;88.95;92917.41;5009331;28;20202;-86
2023/01/26 05:35:55;;;;;;;10.43;9.93;;;;;;;-0.56;88.84;92914.09;5012777;28;20882;-77
2023/01/26 05:38:21;;;;;;;13.00;12.07;;;;;;;-0.62;88.95;92925.94;5013797;28;20198;-76
2023/01/26 05:40:46;;;;;;;10.90;10.30;;;;;;;-0.61;89.57;92916.50;5013205;28;20226;-76
2023/01/26 05:43:12;;;;;;;11.97;11.17;;;;;;;-0.54;89.60;92918.03;5012556;28;20229;-77
2023/01/26 05:45:38;;;;;;;11.00;10.40;;;;;;;-0.65;89.90;92900.72;5012776;28;20286;-78
2023/01/26 05:48:04;;;;;;;11.03;10.47;;;;;;;-0.59;89.26;92919.66;5011163;28;20199;-75
2023/01/26 05:50:29;;;;;;;11.83;11.00;;;;;;;-0.53;88.10;92906.78;5012264;28;20226;-76
2023/01/26 05:52:55;;;;;;;11.07;10.37;;;;;;;-0.35;88.46;92913.78;5012089;28;20251;-76
2023/01/26 05:55:21;;;;;;;12.33;11.53;;;;;;;-0.35;88.39;92917.16;5013169;28;20296;-76
2023/01/26 05:57:47;;;;;;;12.10;11.20;;;;;;;-0.55;89.43;92920.78;5010839;28;20187;-74
2023/01/26 06:00:13;;;;;;;12.77;11.87;;;;;;;-0.51;88.96;92898.88;5012706;28;20322;-72
2023/01/26 06:02:38;;;;;;;11.77;11.00;;;;;;;-0.77;88.91;92863.13;5013322;28;20187;-74
2023/01/26 06:05:05;;;;;;;13.27;12.23;;;;;;;-0.39;88.02;92910.09;5010107;28;20250;-79
2023/01/26 06:07:30;;;;;;;11.60;10.90;;;;;;;-0.43;88.49;92924.28;5013254;28;20195;-74
2023/01/26 06:09:56;;;;;;;12.23;11.23;;;;;;;-0.29;87.79;92913.75;5012802;28;20250;-71
2023/01/26 06:12:21;;;;;;;13.40;12.50;;;;;;;-0.41;87.75;92899.22;5012072;28;20219;-72
2023/01/26 06:14:47;;;;;;;12.00;11.17;;;;;;;-0.42;88.05;92889.97;5011945;28;20227;-76
2023/01/26 06:17:14;;;;;;;11.97;11.17;;;;;;;-0.12;88.70;92919.97;5012477;28;21243;-78
2023/01/26 06:19:39;;;;;;;12.83;11.93;;;;;;;-0.36;88.32;92901.97;5009474;28;20219;-76
2023/01/26 06:22:09;;;;;;;12.73;11.93;;;;;;;-0.30;87.54;92906.28;5012487;28;20215;-76
2023/01/26 06:24:34;;;;;;;12.60;11.80;;;;;;;-0.33;87.77;92919.50;5011745;28;20242;-75
2023/01/26 06:27:01;;;;;;;12.50;11.60;;;;;;;-0.42;88.10;92889.97;5012975;28;20184;-75
2023/01/26 06:29:26;;;;;;;13.73;12.63;;;;;;;-0.22;87.72;92911.94;5011417;28;20315;-75
2023/01/26 06:31:52;;;;;;;12.93;11.93;;;;;;;-0.22;88.12;92901.69;5010325;28;20187;-76
2023/01/26 06:34:18;;;;;;;13.20;11.70;;;;;;;-0.41;87.09;92879.50;5009634;28;20755;-76
2023/01/26 06:36:44;;;;;;;13.17;12.20;;;;;;;-0.12;86.76;92903.78;5009918;28;20220;-78
2023/01/26 06:39:11;;;;;;;13.23;12.07;;;;;;;-0.26;88.54;92897.97;5005436;28;20208;-80
2023/01/26 06:41:36;;;;;;;12.37;11.43;;;;;;;-0.21;88.47;92895.56;5010165;28;20836;-74
2023/01/26 06:44:02;;;;;;;12.27;11.37;;;;;;;-0.25;87.99;92884.13;5010767;28;20223;-74
2023/01/26 06:46:27;;;;;;;12.57;11.50;;;;;;;-0.08;87.83;92895.47;5011020;28;20245;-77
2023/01/26 06:48:52;;;;;;;14.80;13.63;;;;;;;0.06;87.48;92901.31;5008474;28;20909;-77
2023/01/26 06:51:18;;;;;;;14.07;12.87;;;;;;;0.11;87.29;92914.28;5004568;28;20219;-78
2023/01/26 06:53:47;;;;;;;14.63;13.73;;;;;;;-0.14;86.93;92882.72;5010695;28;20200;-77
2023/01/26 06:56:13;;;;;;;13.20;12.20;;;;;;;-0.03;85.93;92897.41;5011496;28;20299;-74
2023/01/26 06:58:39;;;;;;;12.13;11.33;;;;;;;-0.16;86.16;92866.72;5009510;28;20272;-74
2023/01/26 07:01:05;;;;;;;11.80;11.13;;;;;;;-0.17;86.57;92895.91;5009124;28;20227;-76
2023/01/26 07:03:30;;;;;;;12.93;12.03;;;;;;;-0.03;86.55;92905.09;5009388;28;20252;-75
2023/01/26 07:05:56;;;;;;;13.97;12.90;;;;;;;-0.03;87.15;92899.97;5010044;28;20289;-76
2023/01/26 07:08:21;;;;;;;15.20;14.20;;;;;;;0.04;86.43;92893.03;5006921;28;20184;-75
2023/01/26 07:10:48;;;;;;;13.63;12.50;;;;;;;0.04;86.98;92875.06;5011732;28;20215;-75
2023/01/26 07:13:14;;;;;;;13.47;12.40;;;;;;;0.30;85.47;92882.56;5005176;28;20191;-76
2023/01/26 07:15:40;;;;;;;14.53;13.40;;;;;;;0.15;86.41;92889.00;5000570;28;20223;-78
2023/01/26 07:18:05;;;;;;;12.40;10.80;;;;;;;0.26;85.30;92885.75;5011356;28;20196;-76
2023/01/26 07:20:30;;;;;;;12.03;11.13;;;;;;;0.33;84.68;92879.56;5009081;28;20949;-77
2023/01/26 07:22:59;;;;;;;13.13;11.93;;;;;;;0.26;84.85;92871.16;5008873;28;20195;-80
2023/01/26 07:25:25;;;;;;;16.97;15.87;;;;;;;0.29;86.12;92875.88;5008552;28;20221;-79
2023/01/26 07:27:55;;;;;;;14.30;13.30;;;;;;;0.45;85.09;92875.31;5009134;28;20219;-79
2023/01/26 07:30:21;;;;;;;13.47;12.37;;;;;;;-0.09;84.84;92800.75;5033071;28;20311;-78
2023/01/26 07:32:46;;;;;;;13.70;12.53;;;;;;;0.14;85.66;92836.88;5011104;28;20199;-79
2023/01/26 07:35:11;;;;;;;13.53;12.57;;;;;;;0.24;83.72;92868.00;5009484;28;20257;-77
2023/01/26 07:37:37;;;;;;;13.27;12.37;;;;;;;0.46;83.75;92861.50;5008366;28;20230;-76
2023/01/26 07:40:03;;;;;;;13.73;12.63;;;;;;;0.25;83.62;92853.41;5006976;28;20266;-76
2023/01/26 07:42:29;;;;;;;13.20;12.20;;;;;;;0.26;83.55;92850.63;5009801;28;20206;-74
2023/01/26 07:44:55;;;;;;;14.07;12.80;;;;;;;0.24;84.39;92860.31;5008189;28;20262;-77
2023/01/26 07:47:20;;;;;;;13.60;12.57;;;;;;;0.19;85.01;92831.91;5008505;28;20183;-77
2023/01/26 07:49:46;;;;;;;12.30;11.37;;;;;;;0.43;84.09;92856.78;5009494;28;21132;-76
2023/01/26 07:52:11;;;;;;;14.97;13.70;;;;;;;0.53;83.77;92858.88;5009146;28;20220;-75
2023/01/26 07:54:37;;;;;;;12.33;11.40;;;;;;;0.58;82.38;92862.38;5006071;28;20231;-79
2023/01/26 07:57:05;;;;;;;13.53;12.57;;;;;;;0.44;83.65;92868.63;5002987;28;20203;-78
2023/01/26 07:59:31;;;;;;;13.27;12.07;;;;;;;0.17;84.77;92864.72;5008366;28;20234;-72
2023/01/26 08:01:56;;;;;;;13.20;11.70;;;;;;;0.26;84.19;92855.75;5009495;28;20908;-71
2023/01/26 08:04:22;;;;;;;12.63;11.77;;;;;;;0.51;83.04;92866.78;5004071;28;20232;-76
2023/01/26 08:06:50;;;;;;;12.10;11.33;;;;;;;0.38;83.15;92830.97;5006327;28;20212;-76
2023/01/26 08:09:15;;;;;;;13.00;12.23;;;;;;;0.21;83.93;92824.00;5003653;28;20239;-75
2023/01/26 08:11:41;;;;;;;11.43;10.73;;;;;;;0.40;83.55;92816.13;5008414;28;20194;-73
2023/01/26 08:14:06;;;;;;;12.00;11.20;;;;;;;0.57;82.62;92813.78;5005852;28;20251;-72
2023/01/26 08:16:31;;;;;;;13.37;12.37;;;;;;;0.63;82.76;92820.63;5007020;28;20210;-75
2023/01/26 08:18:57;;;;;;;12.33;11.47;;;;;;;0.86;82.98;92837.00;5007988;28;20210;-75
2023/01/26 08:21:23;;;;;;;11.83;11.13;;;;;;;0.62;82.75;92814.72;5008414;28;20211;-76
2023/01/26 08:23:50;;;;;;;11.77;10.87;;;;;;;0.65;83.05;92818.66;5006161;28;20204;-75
2023/01/26 08:26:17;;;;;;;12.87;11.87;;;;;;;0.89;82.26;92840.91;5008303;28;20227;-73
2023/01/26 08:28:42;;;;;;;11.83;10.97;;;;;;;0.81;82.34;92843.78;5007002;28;20187;-74
2023/01/26 08:31:16;;;;;;;11.63;10.83;;;;;;;0.69;83.24;92837.75;5007966;28;20227;-72
2023/01/26 08:33:42;;;;;;;13.50;12.40;;;;;;;0.68;82.96;92839.56;5009636;28;20219;-73
2023/01/26 08:36:11;;;;;;;11.40;10.40;;;;;;;0.74;83.28;92835.34;5005479;28;20231;-73
2023/01/26 08:38:36;;;;;;;13.50;12.27;;;;;;;0.77;83.09;92830.56;5009133;28;20215;-73
2023/01/26 08:41:02;;;;;;;13.27;12.30;;;;;;;0.79;82.75;92831.16;5008090;28;20255;-74
2023/01/26 08:43:28;;;;;;;13.07;12.17;;;;;;;0.52;83.23;92811.06;5009759;28;20221;-72
2023/01/26 08:45:53;;;;;;;12.37;11.57;;;;;;;0.63;83.86;92820.63;5005290;28;20231;-70
2023/01/26 08:48:19;;;;;;;12.97;12.07;;;;;;;0.69;82.60;92815.44;5008211;28;20183;-72
2023/01/26 08:50:45;;;;;;;12.20;11.40;;;;;;;0.76;82.88;92833.34;5006863;28;20262;-71
2023/01/26 08:53:11;;;;;;;11.33;10.53;;;;;;;0.82;83.73;92840.19;5008796;28;20199;-73
2023/01/26 08:55:36;;;;;;;11.43;10.63;;;;;;;0.88;82.91;92837.56;5005322;28;20298;-72
2023/01/26 08:58:02;;;;;;;12.63;11.73;;;;;;;0.89;82.74;92831.41;5007605;28;20176;-73
2023/01/26 09:00:28;;;;;;;12.57;11.67;;;;;;;0.94;82.60;92833.34;5004898;28;20234;-71
2023/01/26 09:03:01;;;;;;;12.80;12.00;;;;;;;0.98;82.67;92834.50;5008687;28;20190;-72
2023/01/26 09:05:29;;;;;;;11.77;11.10;;;;;;;0.90;82.55;92838.13;5007665;28;20219;-72
2023/01/26 09:07:55;;;;;;;10.93;10.23;;;;;;;0.93;82.87;92832.56;5007739;28;20191;-71
2023/01/26 09:10:20;;;;;;;12.27;11.37;;;;;;;0.93;82.99;92835.16;5006648;28;20227;-71
2023/01/26 09:12:46;;;;;;;11.10;10.33;;;;;;;0.87;82.52;92820.56;5008849;28;20195;-69
2023/01/26 09:15:11;;;;;;;11.33;10.67;;;;;;;0.86;82.60;92820.78;5008381;28;20254;-71
2023/01/26 09:17:36;;;;;;;11.03;10.40;;;;;;;1.00;81.84;92830.69;5009433;28;20214;-71
2023/01/26 09:20:06;;;;;;;10.23;9.63;;;;;;;1.03;81.32;92824.34;5009179;28;20258;-71
2023/01/26 09:22:31;;;;;;;12.77;11.90;;;;;;;0.88;82.03;92827.28;5008405;28;21580;-71
2023/01/26 09:24:57;;;;;;;11.83;11.13;;;;;;;0.90;81.15;92811.66;5009249;28;20242;-72
2023/01/26 09:27:22;;;;;;;11.13;10.43;;;;;;;0.83;81.18;92814.28;5008932;28;20183;-71
2023/01/26 09:29:48;;;;;;;11.60;10.90;;;;;;;0.79;81.66;92817.50;5009181;28;20251;-71
2023/01/26 09:32:13;;;;;;;12.07;11.37;;;;;;;0.82;81.77;92794.75;5008082;28;20192;-70
2023/01/26 09:34:39;;;;;;;10.87;10.03;;;;;;;0.93;82.37;92800.94;5008654;28;20250;-71
2023/01/26 09:37:06;;;;;;;11.27;10.57;;;;;;;1.14;82.79;92795.34;5008692;28;20195;-71
2023/01/26 09:39:32;;;;;;;11.70;11.03;;;;;;;1.11;81.80;92782.91;5008874;28;20247;-73
2023/01/26 09:42:31;;;;;;;11.40;10.70;;;;;;;1.18;83.35;92799.81;5009156;28;20196;-72
2023/01/26 09:45:12;;;;;;;11.20;10.50;;;;;;;1.19;82.80;92803.97;5004237;28;20235;-72
2023/01/26 09:48:07;;;;;;;13.10;12.03;;;;;;;1.32;81.69;92796.06;5007580;28;20227;-72
2023/01/26 09:50:47;;;;;;;10.67;10.07;;;;;;;1.29;81.21;92783.66;5008390;28;20218;-72
2023/01/26 09:53:27;;;;;;;10.90;10.23;;;;;;;1.07;81.15;92772.31;5008467;28;20207;-73
2023/01/26 09:55:54;;;;;;;12.30;11.50;;;;;;;1.18;81.41;92775.91;5007783;28;20219;-73
2023/01/26 09:58:39;;;;;;;10.33;9.73;;;;;;;1.30;80.90;92766.44;5006221;28;20204;-72
2023/01/26 10:01:15;;;;;;;11.10;10.60;;;;;;;1.39;81.34;92781.34;5006305;28;20258;-73
2023/01/26 10:03:56;;;;;;;10.97;10.33;;;;;;;1.38;80.91;92779.81;5006869;28;20211;-73
2023/01/26 10:06:27;;;;;;;10.90;10.10;;;;;;;1.30;81.49;92776.75;5006714;28;20223;-73
2023/01/26 10:08:54;;;;;;;11.47;10.67;;;;;;;1.28;81.80;92776.16;5007192;28;20187;-73
2023/01/26 10:11:46;;;;;;;11.63;10.93;;;;;;;1.13;81.80;92775.78;5005523;28;20198;-73
2023/01/26 10:14:14;;;;;;;11.40;10.83;;;;;;;1.14;82.21;92772.19;5003804;28;20243;-72
2023/01/26 10:16:44;;;;;;;11.27;10.57;;;;;;;1.02;82.60;92738.75;5006944;28;20219;-73
2023/01/26 10:19:32;;;;;;;10.43;9.83;;;;;;;1.03;83.43;92749.78;5006106;28;20182;-73
2023/01/26 10:22:01;;;;;;;10.50;10.00;;;;;;;0.89;83.22;92726.06;5011024;28;20199;-73
2023/01/26 10:24:27;;;;;;;11.07;10.37;;;;;;;1.04;82.37;92738.53;5009492;28;20234;-73
2023/01/26 10:26:56;;;;;;;10.43;9.80;;;;;;;1.03;82.21;92719.75;5011144;28;20243;-73
2023/01/26 10:29:22;;;;;;;11.77;10.77;;;;;;;1.00;83.36;92730.47;5010190;28;20227;-76
2023/01/26 10:31:48;;;;;;;10.77;10.07;;;;;;;0.93;83.06;92713.56;5009096;28;20202;-74
2023/01/26 10:34:16;;;;;;;11.23;10.17;;;;;;;1.21;82.39;92721.50;5010100;28;20287;-75
2023/01/26 10:36:44;;;;;;;11.13;10.57;;;;;;;1.28;82.22;92702.38;5011978;28;20199;-75
2023/01/26 10:39:12;;;;;;;12.00;11.20;;;;;;;1.31;82.38;92701.16;5008246;28;20267;-70
2023/01/26 10:41:38;;;;;;;12.43;11.17;;;;;;;1.26;82.67;92688.19;5011157;28;20195;-73
2023/01/26 10:44:23;;;;;;;11.77;11.03;;;;;;;1.37;81.76;92672.78;5011663;28;20223;-71
2023/01/26 10:47:05;;;;;;;11.77;10.97;;;;;;;1.50;81.01;92662.28;5012246;28;20194;-72
2023/01/26 10:49:31;;;;;;;12.33;11.13;;;;;;;1.50;80.19;92677.72;5011426;28;20314;-72
2023/01/26 10:52:07;;;;;;;12.87;11.77;;;;;;;1.50;79.60;92667.44;5011835;28;20231;-72
2023/01/26 10:54:37;;;;;;;12.13;11.43;;;;;;;1.67;79.48;92662.41;5010137;28;20266;-71
2023/01/26 10:57:24;;;;;;;11.43;10.63;;;;;;;1.84;78.56;92655.56;5009746;28;20283;-73
2023/01/26 10:59:55;;;;;;;14.07;12.87;;;;;;;1.83;77.33;92638.59;5010346;28;20227;-72
2023/01/26 11:02:26;;;;;;;14.50;13.00;;;;;;;1.96;77.80;92653.00;5011211;28;20210;-72
2023/01/26 11:05:17;;;;;;;13.60;12.30;;;;;;;1.97;77.62;92639.13;5009579;28;20231;-84
2023/01/26 11:07:44;;;;;;;11.17;10.57;;;;;;;2.01;77.24;92622.22;5037540;28;21629;-82
2023/01/26 11:10:22;;;;;;;13.10;12.10;;;;;;;2.07;77.28;92634.19;5010402;28;20242;-80
2023/01/26 11:12:49;;;;;;;16.17;13.23;;;;;;;1.96;76.76;92624.69;5011164;28;20187;-82
2023/01/26 11:15:15;;;;;;;12.33;11.53;;;;;;;2.00;77.89;92616.28;5011176;28;20231;-77
2023/01/26 11:17:58;;;;;;;12.60;11.53;;;;;;;2.08;77.51;92622.88;5010250;28;20251;-76
2023/01/26 11:20:40;;;;;;;12.23;11.30;;;;;;;2.05;78.84;92621.56;5010841;28;20223;-76
2023/01/26 11:23:05;;;;;;;11.50;10.67;;;;;;;2.17;77.46;92613.78;5010984;28;20188;-78
2023/01/26 11:25:47;;;;;;;12.27;11.37;;;;;;;2.01;78.33;92606.78;5010613;28;20231;-75
2023/01/26 11:28:31;;;;;;;10.53;9.93;;;;;;;2.29;75.96;92599.88;5034267;28;20179;-74
2023/01/26 11:31:02;;;;;;;11.33;10.50;;;;;;;2.34;76.75;92599.19;5010158;28;20250;-71
2023/01/26 11:33:37;;;;;;;12.33;11.30;;;;;;;2.29;76.90;92596.53;5012247;28;20254;-71
2023/01/26 11:36:23;;;;;;;11.23;10.53;;;;;;;2.19;76.53;92599.69;5009608;28;20226;-71
2023/01/26 11:39:16;;;;;;;12.63;11.83;;;;;;;2.02;77.83;92573.09;5007823;28;20195;-71
2023/01/26 11:41:53;;;;;;;9.83;9.40;;;;;;;2.17;77.63;92581.09;4988805;28;20227;-73
2023/01/26 11:44:27;;;;;;;10.67;10.17;;;;;;;2.05;77.91;92582.94;4989341;28;20271;-72
2023/01/26 11:46:57;;;;;;;10.80;10.27;;;;;;;2.01;78.35;92578.47;4990738;28;20195;-71
2023/01/26 11:49:23;;;;;;;10.10;9.60;;;;;;;1.92;78.68;92592.69;4988635;28;20325;-70
2023/01/26 11:52:08;;;;;;;10.33;9.90;;;;;;;1.92;78.64;92577.22;4988133;28;20232;-72
2023/01/26 11:54:56;;;;;;;10.13;9.63;;;;;;;1.75;79.37;92560.94;4989456;28;20243;-72
2023/01/26 11:57:35;;;;;;;11.00;10.40;;;;;;;1.71;80.04;92567.56;4988683;28;20199;-71
2023/01/26 12:00:00;;;;;;;10.97;10.37;;;;;;;1.65;79.85;92570.00;4989387;28;20279;-72
2023/01/26 12:02:36;;;;;;;11.13;10.53;;;;;;;1.42;81.30;92552.03;4989693;28;20195;-72
2023/01/26 12:05:11;;;;;;;11.23;10.73;;;;;;;1.70;80.47;92566.75;4985798;28;20259;-72
2023/01/26 12:07:58;;;;;;;12.93;12.13;;;;;;;1.79;80.99;92564.63;4987041;28;20958;-72
2023/01/26 12:10:30;;;;;;;11.53;10.90;;;;;;;1.70;81.17;92556.47;4988921;28;20248;-72
2023/01/26 12:13:21;;;;;;;10.60;9.90;;;;;;;1.64;81.62;92550.44;4988712;28;20188;-71
2023/01/26 12:15:54;;;;;;;10.73;10.13;;;;;;;1.74;81.11;92542.16;4986460;28;20228;-73
2023/01/26 12:18:33;;;;;;;11.27;10.57;;;;;;;1.79;81.42;92538.91;4990746;28;20184;-72